Terminal Aerodrome Forecast
Issued by NWS Jackson, KY

Home | Current Version | Previous Version | Text Only | Print | Product List | Glossary On
Versions: 1 2 3 4 5 6 7 8 9 10 11 12 13 14 15
000
FTUS43 KJKL 180751 AAA
TAFLOZ
TAF AMD
KLOZ 180751Z 1808/1906 VRB04KT 4SM -SHRA BR VCTS BKN025CB BKN040
     FM181200 VRB04KT P6SM VCSH OVC015
     FM181700 26006KT P6SM SCT025
     FM190200 VRB03KT P6SM SKC=

USA.gov is the U.S. government's official web portal to all federal, state and local government web resources and services.